Aérodrome :







RETROUVEZ-NOUS SUR...

 
LOGIN :

S'inscrire | Disclaimer

   EN    FR    IT 

 









Légende :    VFR   VFR Marginal   IFR   IFR Intensif   IFR Très Intensif
Visi : 
Plafond : 
>= 8 km
>= 3000ft
5 à 8 km
1000 à 3000 ft
1500m à 5 km
500 à 1000 ft
800 à 1500m
200 à 500 ft
< 800m
< 200 ft
Symboles :   Orages  Brouillard  Fortes neiges  Fortes précipitations  Vent > 20 kt






- Altitude de l'aérodrome : 335 ft
- Code IATA : BTV


KBTV - Burlington International

DERNIER METAR :
  • 210804Z AUTO 00000KT 1/4SM R15/1800VP6000FT FZFG FEW002 BKN031 M01/M02 A3016 RMK AO2 T10061017

METARs EXPIRÉS :
  • 210754Z AUTO 00000KT 1/2SM R15/4000VP6000FT FZFG OVC031 M01/M02 A3016 RMK AO2 SLP217 T10111017
  • 210730Z AUTO 00000KT 3/4SM R15/P6000FT BR OVC031 M01/M02 A3016 RMK AO2 T10061017
  • 210722Z AUTO 00000KT 1 3/4SM BR OVC031 00/M01 A3016 RMK AO2 T00001011
  • 210714Z AUTO 00000KT 3SM BR OVC031 00/M01 A3016 RMK AO2 T00001011
  • 210701Z AUTO 00000KT 1 3/4SM R15/3500VP6000FT BR BKN030 OVC100 00/M01 A3016 RMK AO2 T00001011
  • 210654Z AUTO 00000KT 5SM R15/2000V4500FT BR BKN030 OVC100 00/M01 A3016 RMK AO2 SLP216 T00001011
  • 210554Z AUTO 00000KT 4SM BR OVC100 00/M01 A3014 RMK AO2 SLP211 60000 T00001006 10011 20000 53003

TAF KBTV
Valide du 21 à 06h jusqu'au 22 à 06h UTC


210542Z 2106/2206 00000KT 6SM BR BKN045 OVC050
TEMPO 2106/2110 3SM BR
FM211800 23004KT P6SM SCT120
FM220300 17011KT P6SM VCSH OVC060
FM220500 17012KT P6SM VCSH OVC045 WS020/21040KT



MET'MAP, la Météo Aéronautique d'un coup d'oeil ! - Copyright ORBIFLY Décembre 2007 - Disclaimer

ORBIFLY MET'MAP TEAM :

Programmation & Développement : Alexandra Zaïnal
Conception & Développement : Baudouin d'Aumeries
Co-Programmation & Développement : Marc-Olivier Méhu
Soutien technique & logistique : Manuel Goepfert

Contact : metmap@orbifly.com




SOURCES & CREDITS :

   NOAA